CYVQ

Norman Wells Airport

Norman Wells, Northwest Territories, Canada
METAR CYVQ 231200Z 12005KT 30SM FEW200 BKN260 12/09 A3022 RMK CI2CI3 SLP236
Observed Flight Rules
Jul-23 @ 12:00 UTC (an hour ago) Visual Flight Rules
Wind Visibility Clouds
120° at 5 knots 30 miles
  • Few at 20,000' AGL
  • Broken at 26,000' AGL
Temperatures Readings
Current 12°C / 54°F
Dewpoint 9°C / 48°F
Humidity 82%
Altimeter 30.22" Hg
Pressure 1023.6 hPa
Elevation 74
METAR CYVQ 231200Z 12005KT 30SM FEW200 BKN260 12/09 A3022 RMK CI2CI3 SLP236
Observed Flight Rules
Jul-23 @ 12:00 UTC
(an hour ago)
VFR
Wind Visibility
120° at 5 knots 30 miles
Clouds
  • Few at 20,000' AGL
  • Broken at 26,000' AGL
Temperature Dewpoint
12°C / 54°F 9°C / 48°F
Humidity Altimeter Pressure
82% 30.22" Hg 1023.6 hPa